• Join FlightAware (Why Join?)
  • Login
  • US Flag 
08:08AM EDT


 

Airport Tracker/Info


-or-


 

Live Flight TrackerFlight Track Log ✈ QLK374 ✈ 25-Sep-2013 ✈ WPDL / DIL - YPDN / DRW

Flight Track Log - Related Links

Times and Time Zones

All times are in EDT time to prevent confusion due to time zone crossing. See the QLK374 flight status page for this flight to view local times or setup timezone preferences in your user account.

Time Position Orientation Groundspeed Altitude Reporting Facility
EDT Latitude Longitude Course Direction KTS MPH feet Rate Location/Type
10:52PM -9.0142 126.1588 115° Southeast  Level Estimated
10:53PM -9.0197 126.2717 93° East  Level FlightAware Approximate
10:54PM -9.0253 126.3847 93° East  Level FlightAware Approximate
10:55PM -9.0307 126.4977 93° East  Level FlightAware Approximate
10:56PM -9.0362 126.6106 93° East  Level FlightAware Approximate
10:57PM -9.0416 126.7236 93° East  Level FlightAware Approximate
10:58PM -9.0470 126.8366 93° East  Level FlightAware Approximate
10:59PM -9.0524 126.9495 93° East  Level FlightAware Approximate
11:00PM -9.0577 127.0625 93° East  Level FlightAware Approximate
11:01PM -9.1327 127.1463 137° Southeast  Level Estimated
11:02PM -9.1994 127.2371 127° Southeast  Level FlightAware Approximate
11:03PM -9.2662 127.3278 127° Southeast  Level FlightAware Approximate
11:04PM -9.3329 127.4186 127° Southeast  Level FlightAware Approximate
11:05PM -9.3996 127.5094 127° Southeast  Level FlightAware Approximate
11:06PM -9.4662 127.6003 127° Southeast  Level FlightAware Approximate
11:07PM -9.5329 127.6911 127° Southeast  Level FlightAware Approximate
11:07PM -9.2303 127.8616 137° Southeast 35,000  Level Aus ATC (Calculated)
11:07PM -9.2303 127.8616 137° Southeast 35,000 -480 Level Aus ATC (Calculated)
11:09PM -9.3599 127.9835 137° Southeast  Level FlightAware Approximate
11:10PM -9.4418 128.0605 137° Southeast  Level FlightAware Approximate
11:10PM -9.4874 128.1034 132° Southeast 35,000  Level Aus ATC (Calculated)
11:10PM -9.4874 128.1034 132° Southeast 35,000 -1,440 Level Aus ATC (Calculated)
11:11PM -9.4952 128.1123 137° Southeast 423 487 33,000 -1,140 Descending Aus ATC (RADAR)
11:12PM -9.5377 128.1573 134° Southeast 422 486 33,000  Level Aus ATC (RADAR)
11:12PM -9.5593 128.1788 136° Southeast 422 486 33,000  Level Aus ATC (RADAR)
11:13PM -9.6131 128.2279 138° Southeast 421 484 33,000  Level Aus ATC (RADAR)
11:13PM -9.6888 128.2988 137° Southeast 422 486 33,000  Level Aus ATC (RADAR)
11:14PM -9.7425 128.3472 138° Southeast 423 487 33,000  Level Aus ATC (RADAR)
11:15PM -9.7897 128.3884 139° Southeast 425 489 33,000  Level Aus ATC (RADAR)
11:15PM -9.8496 128.4461 137° Southeast 425 489 33,000  Level Aus ATC (RADAR)
11:16PM -9.9550 128.5465 137° Southeast 425 489 33,000  Level Aus ATC (RADAR)
11:17PM -9.9988 128.5903 135° Southeast 425 489 33,000  Level Aus ATC (RADAR)
11:17PM -10.0216 128.6115 138° Southeast 424 488 33,000  Level Aus ATC (RADAR)
11:18PM -10.0758 128.6598 139° Southeast 424 488 33,000  Level Aus ATC (RADAR)
11:19PM -10.1584 128.7388 137° Southeast 425 489 33,000  Level Aus ATC (RADAR)
11:19PM -10.2105 128.7878 137° Southeast 425 489 33,000  Level Aus ATC (RADAR)
11:20PM -10.2945 128.8673 137° Southeast 429 494 33,000  Level Aus ATC (RADAR)
11:20PM -10.3157 128.8895 134° Southeast 426 490 33,000  Level Aus ATC (RADAR)
11:22PM -10.4445 129.0111 137° Southeast 428 493 33,000  Level Aus ATC (RADAR)
11:22PM -10.4821 129.0472 137° Southeast 429 494 33,000  Level Aus ATC (RADAR)
11:23PM -10.5431 129.1040 138° Southeast 428 493 33,000  Level Aus ATC (RADAR)
11:24PM -10.6047 129.1604 138° Southeast 428 493 33,000  Level Aus ATC (RADAR)
11:24PM -10.6595 129.2086 139° Southeast 428 493 33,000  Level Aus ATC (RADAR)
11:25PM -10.7505 129.2795 143° Southeast 430 495 33,000  Level Aus ATC (RADAR)
11:25PM -10.7749 129.2995 141° Southeast 431 496 33,000  Level Aus ATC (RADAR)
11:26PM -10.8789 129.3856 141° Southeast 428 493 33,000  Level Aus ATC (RADAR)
11:27PM -10.9438 129.4378 142° Southeast 428 493 33,000  Level Aus ATC (RADAR)
11:27PM -10.9682 129.4574 142° Southeast 428 493 33,000  Level Aus ATC (RADAR)
11:28PM -11.0316 129.5108 140° Southeast 427 491 33,000  Level Aus ATC (RADAR)
11:29PM -11.1279 129.5898 141° Southeast 428 493 33,000  Level Aus ATC (RADAR)
11:30PM -11.1839 129.6357 141° Southeast 426 490 33,000  Level Aus ATC (RADAR)
11:30PM -11.2559 129.6949 141° Southeast 426 490 33,000  Level Aus ATC (RADAR)
11:31PM -11.3377 129.7617 141° Southeast 444 511 33,000  Level FlightAware ADS-B (YPDN / DRW)
11:32PM -11.3779 129.7947 141° Southeast 444 511 33,000  Level FlightAware ADS-B (YPDN / DRW)
11:32PM -11.4355 129.8423 141° Southeast 444 511 33,000  Level FlightAware ADS-B (YPDN / DRW)
11:33PM -11.4834 129.8817 141° Southeast 443 510 33,000 -600 Level FlightAware ADS-B (YPDN / DRW)
11:33PM -11.5282 129.9216 139° Southeast 445 512 32,400 -1,800 Descending FlightAware ADS-B (YPDN / DRW)
11:34PM -11.5749 129.9663 137° Southeast 448 516 31,200 -2,400 Descending FlightAware ADS-B (YPDN / DRW)
11:34PM -11.6180 130.0076 137° Southeast 451 519 30,000 -2,400 Descending FlightAware ADS-B (YPDN / DRW)
11:35PM -11.6664 130.0541 137° Southeast 440 506 28,800 -2,400 Descending FlightAware ADS-B (YPDN / DRW)
11:35PM -11.7100 130.0962 137° Southeast 429 494 27,600 -2,340 Descending FlightAware ADS-B (YPDN / DRW)
11:36PM -11.7509 130.1359 136° Southeast 426 490 26,500 -2,220 Descending FlightAware ADS-B (YPDN / DRW)
11:36PM -11.7956 130.1792 137° Southeast 425 489 25,400 -2,340 Descending FlightAware ADS-B (YPDN / DRW)
11:37PM -11.8385 130.2207 137° Southeast 418 481 24,200 -2,340 Descending FlightAware ADS-B (YPDN / DRW)
11:37PM -11.8792 130.2601 137° Southeast 393 452 23,100 -2,040 Descending FlightAware ADS-B (YPDN / DRW)
11:38PM -11.9171 130.2970 136° Southeast 365 420 22,200 -1,920 Descending FlightAware ADS-B (YPDN / DRW)
11:38PM -11.9527 130.3315 137° Southeast 342 394 21,200 -1,800 Descending FlightAware ADS-B (YPDN / DRW)
11:39PM -11.9859 130.3636 137° Southeast 322 371 20,400 -1,740 Descending FlightAware ADS-B (YPDN / DRW)
11:39PM -12.0165 130.3932 137° Southeast 318 366 19,500 -1,740 Descending FlightAware ADS-B (YPDN / DRW)
11:40PM -12.0509 130.4267 136° Southeast 327 376 18,700 -1,740 Descending FlightAware ADS-B (YPDN / DRW)
11:40PM -12.0835 130.4584 136° Southeast 322 371 17,800 -1,800 Descending FlightAware ADS-B (YPDN / DRW)
11:41PM -12.1160 130.4900 136° Southeast 315 362 16,900 -1,740 Descending FlightAware ADS-B (YPDN / DRW)
11:41PM -12.1467 130.5210 135° Southeast 312 359 16,100 -1,560 Descending FlightAware ADS-B (YPDN / DRW)
11:41PM -12.1615 130.5441 123° Southeast 309 356 15,600 -1,680 Descending FlightAware ADS-B (YPDN / DRW)
11:42PM -12.1812 130.5847 116° Southeast 305 351 14,700 -1,620 Descending FlightAware ADS-B (YPDN / DRW)
11:42PM -12.1998 130.6229 116° Southeast 302 348 14,000 -1,620 Descending FlightAware ADS-B (YPDN / DRW)
11:43PM -12.2184 130.6617 116° Southeast 300 345 13,100 -1,620 Descending FlightAware ADS-B (YPDN / DRW)
11:43PM -12.2367 130.6993 116° Southeast 298 343 12,400 -1,500 Descending FlightAware ADS-B (YPDN / DRW)
11:44PM -12.2549 130.7371 116° Southeast 294 338 11,600 -1,620 Descending FlightAware ADS-B (YPDN / DRW)
11:44PM -12.2721 130.7728 116° Southeast 280 322 10,800 -1,500 Descending FlightAware ADS-B (YPDN / DRW)
11:45PM -12.2889 130.8076 116° Southeast 265 305 10,100 -1,380 Descending FlightAware ADS-B (YPDN / DRW)
11:45PM -12.2993 130.8292 116° Southeast 255 293 9,700 -1,380 Descending FlightAware ADS-B (YPDN / DRW)
11:46PM -12.3100 130.8515 116° Southeast 246 283 9,200 -1,320 Descending FlightAware ADS-B (YPDN / DRW)
11:46PM -12.3186 130.8694 116° Southeast 237 273 8,800 -1,260 Descending FlightAware ADS-B (YPDN / DRW)
11:46PM -12.3257 130.8842 116° Southeast 236 272 8,400 -1,260 Descending FlightAware ADS-B (YPDN / DRW)
11:47PM -12.3359 130.9112 111° Southeast 234 269 8,000 -1,320 Descending FlightAware ADS-B (YPDN / DRW)
11:47PM -12.3421 130.9297 109° East 233 268 7,500 -1,200 Descending FlightAware ADS-B (YPDN / DRW)
11:47PM -12.3503 130.9536 109° East 231 266 7,200 -1,200 Descending FlightAware ADS-B (YPDN / DRW)
11:48PM -12.3574 130.9749 109° East 227 261 6,700 -1,320 Descending FlightAware ADS-B (YPDN / DRW)
11:48PM -12.3645 130.9956 109° East 230 265 6,300 -1,200 Descending FlightAware ADS-B (YPDN / DRW)
11:48PM -12.3716 131.0159 110° East 227 261 5,900 -1,200 Descending FlightAware ADS-B (YPDN / DRW)
11:49PM -12.3786 131.0359 110° East 220 253 5,500 -1,080 Descending FlightAware ADS-B (YPDN / DRW)
11:49PM -12.3852 131.0546 110° East 218 251 5,200 -1,080 Descending FlightAware ADS-B (YPDN / DRW)
11:49PM -12.3921 131.0744 110° East 220 253 4,800 -1,200 Descending FlightAware ADS-B (YPDN / DRW)
11:50PM -12.3987 131.0935 110° East 221 254 4,400 -1,260 Descending FlightAware ADS-B (YPDN / DRW)
11:50PM -12.4054 131.1128 110° East 224 258 4,000 -1,200 Descending FlightAware ADS-B (YPDN / DRW)
11:50PM -12.4144 131.1327 115° Southeast 225 259 3,600 -1,200 Descending FlightAware ADS-B (YPDN / DRW)
11:50PM -12.4230 131.1390 144° Southeast 226 260 3,400 -1,200 Descending FlightAware ADS-B (YPDN / DRW)
11:51PM -12.4326 131.1411 168° South 230 265 3,200 -900 Descending FlightAware ADS-B (YPDN / DRW)
11:51PM -12.4439 131.1390 190° South 234 269 3,100 -420 Descending FlightAware ADS-B (YPDN / DRW)
11:51PM -12.4629 131.1322 199° South 231 266 3,000 -180 Descending FlightAware ADS-B (YPDN / DRW)
11:51PM -12.4846 131.1239 200° South 230 265 3,000  Level FlightAware ADS-B (YPDN / DRW)
11:52PM -12.5024 131.1123 213° Southwest 234 269 3,000  Level FlightAware ADS-B (YPDN / DRW)
11:52PM -12.5064 131.1023 248° West 233 268 3,000 300 Level FlightAware ADS-B (YPDN / DRW)
11:52PM -12.5058 131.0927 273° West 231 266 3,100  Climbing FlightAware ADS-B (YPDN / DRW)
11:52PM -12.5005 131.0819 297° West 227 261 3,000 -240 Descending FlightAware ADS-B (YPDN / DRW)
11:53PM -12.4874 131.0659 310° West 210 242 3,000  Level FlightAware ADS-B (YPDN / DRW)
11:53PM -12.4757 131.0512 309° West 205 236 3,000  Level FlightAware ADS-B (YPDN / DRW)
11:53PM -12.4663 131.0349 301° West 208 239 3,000 -600 Level FlightAware ADS-B (YPDN / DRW)
11:54PM -12.4597 131.0157 289° West 203 234 2,600 -1,200 Descending FlightAware ADS-B (YPDN / DRW)
11:54PM -12.4541 130.9986 289° West 184 212 2,200 -1,080 Descending FlightAware ADS-B (YPDN / DRW)
11:54PM -12.4488 130.9826 289° West 175 201 1,900 -900 Descending FlightAware ADS-B (YPDN / DRW)
11:55PM -12.4435 130.9669 289° West 166 191 1,600 -780 Descending FlightAware ADS-B (YPDN / DRW)
11:55PM -12.4394 130.9543 289° West 150 173 1,400 -780 Descending FlightAware ADS-B (YPDN / DRW)
11:55PM -12.4348 130.9401 288° West 144 166 1,100 -900 Descending FlightAware ADS-B (YPDN / DRW)
11:56PM -12.4306 130.9274 289° West 136 157 800 -780 Descending FlightAware ADS-B (YPDN / DRW)
11:56PM -12.4266 130.9155 289° West 134 154 600 -600 Descending FlightAware ADS-B (YPDN / DRW)
11:56PM -12.4204 130.8977 289° West 136 157 300 -600 Descending FlightAware ADS-B (YPDN / DRW)
11:57PM -12.4175 130.8891 289° West 99 114 100 -600 Descending FlightAware ADS-B (YPDN / DRW)